Inicio METAR Ruta Wind Satelite

Informe Meteorológico

Fecha: 2020/09/22 21:26:38 Local
2020.09.23 02:26 UTC


Estado: VENCIDO
Operación:VFR
Bucaramanga / Palonegro, Colombia (SKBG) 07-06N 073-12W
2020.09.22 2300 UTC
Wind: from the NNW (330 degrees) at 7 MPH (6 KT):0
Visibility: greater than 7 mile(s):0
Sky conditions: partly cloudy
Temperature: 73 F (23 C)
Dew Point: 69 F (21 C)
Relative Humidity: 88%
Pressure (altimeter): 29.93 in. Hg (1013 hPa)
ob: SKBG 222300Z 33006KT 9999 SCT010 SCT070 23/21 A2993
cycle: 23

SKBG 222200Z 31007KT 9999 SCT012 SCT070 24/20 A2990
SKBG 222100Z 33006KT 9999 SCT015 SCT070 25/20 A2988
SKBG 222000Z 33007KT 9999 SCT015 SCT070 27/20 A2990
SKBG 221900Z 33006KT 9999 SCT015 SCT240 28/21 A2992
SKBG 221800Z 33007KT 9999 SCT015 SCT240 28/21 A2994

2020/09/22 18:35
TAF SKBG 221630Z 2218/2318 34006KT 9999 FEW010 SCT080
BECMG 2302/2304 00000KT TX28/2219Z TN18/2311Z